Time;durP1;ratioP1;P1;durP2;ratioP2;P2;SDS_P1;SDS_P2;PMS_P1;PMS_P2;Temp;Humidity;BMP_temperature;BMP_pressure;BME280_temperature;BME280_humidity;BME280_pressure;Samples;Min_cycle;Max_cycle;Signal;HPM_P1;HPM_P2
2023/12/04 00:00:20;;;;;;;23.80;10.27;;;-4.90;99.90;;;;;;5042440;28;20213;-68
2023/12/04 00:02:48;;;;;;;22.52;11.25;;;-4.90;99.90;;;;;;5045777;28;20229;-67
2023/12/04 00:05:16;;;;;;;25.88;12.65;;;-4.90;99.90;;;;;;5045301;28;20262;-69
2023/12/04 00:07:44;;;;;;;19.25;10.30;;;-4.90;99.90;;;;;;5045723;28;20343;-69
2023/12/04 00:10:12;;;;;;;24.17;11.48;;;-5.00;99.90;;;;;;5048716;28;20229;-69
2023/12/04 00:12:40;;;;;;;24.92;11.75;;;-5.10;99.90;;;;;;5046908;28;20295;-67
2023/12/04 00:15:09;;;;;;;29.08;11.52;;;-5.10;99.90;;;;;;5044411;28;20300;-68
2023/12/04 00:17:39;;;;;;;24.65;11.82;;;-5.00;99.90;;;;;;5046089;28;20202;-67
2023/12/04 00:20:10;;;;;;;28.73;13.27;;;-4.90;99.90;;;;;;5039001;28;20983;-69
2023/12/04 00:22:38;;;;;;;26.95;11.05;;;-4.80;99.90;;;;;;5045301;28;20698;-67
2023/12/04 00:25:07;;;;;;;28.98;13.70;;;-4.80;99.90;;;;;;5044557;28;20588;-68
2023/12/04 00:27:35;;;;;;;27.58;12.85;;;-4.90;99.90;;;;;;5043495;28;20228;-67
2023/12/04 00:30:05;;;;;;;29.40;14.25;;;-4.90;99.90;;;;;;5045307;28;20205;-68
2023/12/04 00:32:33;;;;;;;27.70;11.75;;;-4.90;99.90;;;;;;5045603;28;20226;-66
2023/12/04 00:35:03;;;;;;;25.52;12.85;;;-4.90;99.90;;;;;;5044767;28;20205;-66
2023/12/04 00:37:31;;;;;;;26.38;11.13;;;-5.00;99.90;;;;;;5045675;28;20282;-68
2023/12/04 00:39:59;;;;;;;33.45;15.27;;;-5.00;99.90;;;;;;5045477;28;20222;-68
2023/12/04 00:42:27;;;;;;;30.05;13.48;;;-4.80;99.90;;;;;;5045432;28;20226;-69
2023/12/04 00:44:55;;;;;;;28.92;14.05;;;-4.80;99.90;;;;;;5044772;28;20217;-70
2023/12/04 00:47:23;;;;;;;30.05;13.00;;;-5.00;99.90;;;;;;5045944;28;20218;-69
2023/12/04 00:49:52;;;;;;;23.77;12.23;;;-5.10;99.90;;;;;;5046147;28;20220;-67
2023/12/04 00:52:21;;;;;;;23.13;11.80;;;-5.20;99.90;;;;;;5046321;28;20276;-67
2023/12/04 00:54:49;;;;;;;26.08;11.90;;;-5.20;99.90;;;;;;5045594;28;20214;-67
2023/12/04 00:57:17;;;;;;;26.67;13.27;;;-5.10;99.90;;;;;;5045528;28;20713;-67
2023/12/04 00:59:45;;;;;;;31.80;14.45;;;-5.20;99.90;;;;;;5044782;28;20253;-67
2023/12/04 01:02:13;;;;;;;30.30;14.50;;;-5.20;99.90;;;;;;5044424;28;20224;-69
2023/12/04 01:04:42;;;;;;;28.25;14.20;;;-5.20;99.90;;;;;;5031706;28;20344;-68
2023/12/04 01:07:10;;;;;;;27.90;13.45;;;-5.30;99.90;;;;;;5044060;28;20339;-70
2023/12/04 01:09:39;;;;;;;25.30;11.80;;;-5.20;99.90;;;;;;5045695;28;20258;-69
2023/12/04 01:12:07;;;;;;;28.27;13.30;;;-5.30;99.90;;;;;;5047767;28;20224;-67
2023/12/04 01:14:38;;;;;;;26.80;13.60;;;-5.30;99.90;;;;;;5036563;28;20237;-68
2023/12/04 01:17:06;;;;;;;29.05;13.40;;;-5.20;99.90;;;;;;5043919;28;20901;-66
2023/12/04 01:19:34;;;;;;;28.88;13.55;;;-5.10;99.90;;;;;;5037106;28;20302;-68
2023/12/04 01:22:02;;;;;;;31.45;14.40;;;-5.00;99.90;;;;;;5044448;28;20319;-70
2023/12/04 01:24:30;;;;;;;31.98;14.70;;;-4.90;99.90;;;;;;5043517;28;20230;-71
2023/12/04 01:27:00;;;;;;;25.50;12.05;;;-5.00;99.90;;;;;;5041345;28;20225;-68
2023/12/04 01:29:28;;;;;;;26.55;12.85;;;-5.00;99.90;;;;;;5045528;28;20954;-68
2023/12/04 01:31:57;;;;;;;27.60;13.48;;;-4.90;99.90;;;;;;5051195;28;20312;-67
2023/12/04 01:34:25;;;;;;;30.70;13.32;;;-4.80;99.90;;;;;;5045143;28;20205;-69
2023/12/04 01:36:53;;;;;;;25.55;11.65;;;-4.80;99.90;;;;;;5044432;28;20299;-68
2023/12/04 01:39:21;;;;;;;27.63;12.95;;;-4.90;99.90;;;;;;5045117;28;20211;-69
2023/12/04 01:41:49;;;;;;;28.95;12.70;;;-4.80;99.90;;;;;;5043506;28;20649;-69
2023/12/04 01:44:19;;;;;;;25.05;12.10;;;-4.70;99.90;;;;;;5034446;28;20796;-67
2023/12/04 01:46:47;;;;;;;28.88;13.02;;;-4.70;99.90;;;;;;5035621;28;20602;-68
2023/12/04 01:49:15;;;;;;;27.65;12.07;;;-4.50;99.90;;;;;;5040734;28;20753;-68
2023/12/04 01:51:44;;;;;;;26.10;12.07;;;-4.50;99.90;;;;;;5043359;28;20234;-69
2023/12/04 01:54:13;;;;;;;28.63;11.75;;;-4.40;99.90;;;;;;5043229;28;20661;-68
2023/12/04 01:56:41;;;;;;;27.30;14.20;;;-4.50;99.90;;;;;;5043211;28;20272;-67
2023/12/04 01:59:09;;;;;;;26.92;12.50;;;-4.40;99.90;;;;;;5043820;28;20226;-69
2023/12/04 02:01:40;;;;;;;25.77;12.68;;;-4.40;99.90;;;;;;5042194;28;20788;-68
2023/12/04 02:04:08;;;;;;;26.70;13.15;;;-4.40;99.90;;;;;;5040696;28;20239;-68
2023/12/04 02:06:36;;;;;;;24.38;11.52;;;-4.50;99.90;;;;;;5040402;28;20376;-69
2023/12/04 02:09:06;;;;;;;25.60;12.80;;;-4.40;99.90;;;;;;5036600;28;20207;-69
2023/12/04 02:11:34;;;;;;;27.98;12.77;;;-4.40;99.90;;;;;;5035055;28;20228;-68
2023/12/04 02:14:02;;;;;;;25.65;12.63;;;-4.50;99.90;;;;;;5036409;28;20593;-67
2023/12/04 02:16:31;;;;;;;26.63;12.50;;;-4.70;99.90;;;;;;5043519;28;20234;-68
2023/12/04 02:19:01;;;;;;;23.90;11.73;;;-4.70;99.90;;;;;;5036675;28;20233;-68
2023/12/04 02:21:29;;;;;;;28.88;12.90;;;-4.50;99.90;;;;;;5043511;28;20219;-67
2023/12/04 02:23:58;;;;;;;26.02;13.13;;;-4.50;99.90;;;;;;5043366;28;20638;-67
2023/12/04 02:26:33;;;;;;;27.77;12.57;;;-4.50;99.90;;;;;;5041050;28;20224;-68
2023/12/04 02:29:06;;;;;;;24.45;10.48;;;-4.50;99.90;;;;;;5043501;28;20768;-68
2023/12/04 02:31:37;;;;;;;25.65;11.55;;;-4.70;99.90;;;;;;5042741;28;20226;-68
2023/12/04 02:34:08;;;;;;;24.63;11.13;;;-4.90;99.90;;;;;;5043277;28;20201;-68
2023/12/04 02:36:38;;;;;;;23.73;11.80;;;-4.70;99.90;;;;;;5043328;28;20307;-68
2023/12/04 02:39:08;;;;;;;25.65;11.90;;;-4.80;99.90;;;;;;5036583;28;20536;-66
2023/12/04 02:41:36;;;;;;;29.25;14.70;;;-4.80;99.90;;;;;;5036013;28;20256;-68
2023/12/04 02:44:04;;;;;;;28.83;12.30;;;-4.80;99.90;;;;;;5043885;28;20227;-68
2023/12/04 02:46:32;;;;;;;25.75;12.02;;;-4.60;99.90;;;;;;5052805;28;20208;-68
2023/12/04 02:49:01;;;;;;;26.60;11.98;;;-4.60;99.90;;;;;;5048086;28;20307;-67
2023/12/04 02:51:29;;;;;;;21.95;10.43;;;-4.50;99.90;;;;;;5047358;28;20757;-67
2023/12/04 02:53:57;;;;;;;26.88;11.82;;;-4.50;99.90;;;;;;5042379;28;20245;-70
2023/12/04 02:56:26;;;;;;;25.63;12.65;;;-4.50;99.90;;;;;;5043877;28;20225;-68
2023/12/04 02:58:55;;;;;;;25.75;11.02;;;-4.40;99.90;;;;;;5047359;28;20240;-70
2023/12/04 03:01:23;;;;;;;26.45;12.10;;;-4.40;99.90;;;;;;5045003;28;20224;-69
2023/12/04 03:03:51;;;;;;;23.08;10.98;;;-4.40;99.90;;;;;;5047351;28;20216;-67
2023/12/04 03:06:19;;;;;;;30.83;12.98;;;-4.50;99.90;;;;;;5047683;28;20252;-67
2023/12/04 03:08:47;;;;;;;25.40;13.40;;;-4.40;99.90;;;;;;5045607;28;20221;-68
2023/12/04 03:11:15;;;;;;;26.27;11.52;;;-4.50;99.90;;;;;;5047956;28;20227;-66
2023/12/04 03:13:44;;;;;;;25.23;12.52;;;-4.50;99.90;;;;;;5050613;28;20227;-68
2023/12/04 03:16:16;;;;;;;26.25;12.15;;;-4.40;99.90;;;;;;5046689;28;20234;-71
2023/12/04 03:18:44;;;;;;;23.60;11.80;;;-4.50;99.90;;;;;;5047505;28;20233;-69
2023/12/04 03:21:13;;;;;;;28.95;13.23;;;-4.50;99.90;;;;;;5047025;28;20322;-68
2023/12/04 03:23:41;;;;;;;27.10;12.88;;;-4.50;99.90;;;;;;5040176;28;20221;-69
2023/12/04 03:26:09;;;;;;;21.65;11.00;;;-4.60;99.90;;;;;;5045854;28;20240;-69
2023/12/04 03:28:39;;;;;;;26.73;12.57;;;-4.50;99.90;;;;;;5046040;28;20225;-67
2023/12/04 03:31:08;;;;;;;23.88;12.35;;;-4.40;99.90;;;;;;5046240;28;20232;-70
2023/12/04 03:33:36;;;;;;;24.90;10.80;;;-4.40;99.90;;;;;;5044606;28;20292;-69
2023/12/04 03:36:06;;;;;;;24.88;11.27;;;-4.40;99.90;;;;;;5041003;28;20895;-69
2023/12/04 03:38:34;;;;;;;20.75;9.82;;;-4.40;99.90;;;;;;5046119;28;20732;-68
2023/12/04 03:41:02;;;;;;;21.17;9.73;;;-4.40;99.90;;;;;;5046037;28;20726;-68
2023/12/04 03:43:29;;;;;;;24.73;11.32;;;-4.40;99.90;;;;;;5042042;28;20281;-67
2023/12/04 03:45:58;;;;;;;23.52;11.45;;;-4.40;99.90;;;;;;5044083;28;20262;-68
2023/12/04 03:48:27;;;;;;;21.20;9.85;;;-4.30;99.90;;;;;;5046493;28;20217;-66
2023/12/04 03:50:55;;;;;;;25.33;9.50;;;-4.30;99.90;;;;;;5045120;28;20224;-70
2023/12/04 03:53:23;;;;;;;25.42;12.00;;;-4.30;99.90;;;;;;5044138;28;20782;-68
2023/12/04 03:55:52;;;;;;;25.92;12.82;;;-4.30;99.90;;;;;;5046733;28;20304;-67
2023/12/04 03:58:20;;;;;;;22.05;10.80;;;-4.30;99.90;;;;;;5045114;28;20659;-68
2023/12/04 04:00:48;;;;;;;24.65;10.90;;;-4.20;99.90;;;;;;5046289;28;20221;-67
2023/12/04 04:03:16;;;;;;;24.70;11.32;;;-4.30;99.90;;;;;;5037273;28;20217;-67
2023/12/04 04:05:45;;;;;;;26.20;11.27;;;-4.30;99.90;;;;;;5054340;28;20250;-67
2023/12/04 04:08:13;;;;;;;21.17;10.88;;;-4.30;99.90;;;;;;5045796;28;20225;-69
2023/12/04 04:10:41;;;;;;;23.48;11.05;;;-4.30;99.90;;;;;;5039002;28;20235;-68
2023/12/04 04:13:09;;;;;;;25.30;11.77;;;-4.30;99.90;;;;;;5046861;28;20209;-69
2023/12/04 04:15:37;;;;;;;22.75;11.10;;;-4.20;99.90;;;;;;5045280;28;20210;-68
2023/12/04 04:18:05;;;;;;;22.38;10.85;;;-4.20;99.90;;;;;;5041018;28;20218;-71
2023/12/04 04:20:33;;;;;;;22.27;10.70;;;-4.20;99.90;;;;;;5045005;28;20235;-68
2023/12/04 04:23:03;;;;;;;24.10;11.43;;;-4.20;99.90;;;;;;5045549;28;20227;-69
2023/12/04 04:25:31;;;;;;;19.35;10.23;;;-4.10;99.90;;;;;;5039271;28;20228;-67
2023/12/04 04:27:59;;;;;;;22.33;9.90;;;-4.20;99.90;;;;;;5042312;28;20264;-67
2023/12/04 04:30:27;;;;;;;21.85;11.27;;;-4.20;99.90;;;;;;5038874;28;20318;-69
2023/12/04 04:32:55;;;;;;;21.08;11.00;;;-4.30;99.90;;;;;;5041823;28;20320;-67
2023/12/04 04:35:23;;;;;;;20.48;10.02;;;-4.10;99.90;;;;;;5033301;28;20230;-68
2023/12/04 04:37:52;;;;;;;25.75;10.30;;;-4.20;99.90;;;;;;5044804;28;20229;-71
2023/12/04 04:40:21;;;;;;;26.40;10.75;;;-4.20;99.90;;;;;;5044756;28;20848;-67
2023/12/04 04:42:49;;;;;;;21.10;9.85;;;-4.00;99.90;;;;;;5044427;28;20638;-68
2023/12/04 04:45:17;;;;;;;25.92;10.55;;;-4.10;99.90;;;;;;5044574;28;20235;-66
2023/12/04 04:47:45;;;;;;;21.00;11.70;;;-4.10;99.90;;;;;;5044948;28;20254;-66
2023/12/04 04:50:14;;;;;;;23.95;10.63;;;-4.00;99.90;;;;;;5044808;28;20838;-67
2023/12/04 04:52:41;;;;;;;20.98;10.90;;;-4.00;99.90;;;;;;5044927;28;20317;-66
2023/12/04 04:55:09;;;;;;;23.70;11.02;;;-4.10;99.90;;;;;;5043680;28;20215;-66
2023/12/04 04:57:39;;;;;;;22.48;10.48;;;-4.20;99.90;;;;;;5044800;28;20276;-66
2023/12/04 05:00:08;;;;;;;21.63;10.43;;;-4.30;99.90;;;;;;5043782;28;20291;-67
2023/12/04 05:02:36;;;;;;;21.13;9.85;;;-4.30;99.90;;;;;;5044309;28;20223;-69
2023/12/04 05:05:05;;;;;;;22.17;10.70;;;-4.30;99.90;;;;;;5046392;28;20284;-67
2023/12/04 05:07:33;;;;;;;19.05;9.25;;;-4.30;99.90;;;;;;5045041;28;20303;-69
2023/12/04 05:10:01;;;;;;;23.60;9.13;;;-4.20;99.90;;;;;;5044072;28;20736;-69
2023/12/04 05:12:33;;;;;;;19.88;9.43;;;-4.20;99.90;;;;;;5044680;28;20278;-69
2023/12/04 05:15:02;;;;;;;24.38;11.07;;;-4.30;99.90;;;;;;5052470;28;20232;-66
2023/12/04 05:17:30;;;;;;;18.63;9.02;;;-4.10;99.90;;;;;;5044597;28;20252;-67
2023/12/04 05:19:58;;;;;;;20.27;9.02;;;-4.00;99.90;;;;;;5048910;28;20233;-67
2023/12/04 05:22:27;;;;;;;22.30;10.38;;;-4.00;99.90;;;;;;5044503;28;20735;-67
2023/12/04 05:24:55;;;;;;;18.80;9.15;;;-4.00;99.90;;;;;;5043555;28;20205;-67
2023/12/04 05:27:23;;;;;;;20.98;9.98;;;-4.00;99.90;;;;;;5042268;28;20229;-65
2023/12/04 05:29:51;;;;;;;19.98;10.73;;;-3.90;99.90;;;;;;5044536;28;20213;-66
2023/12/04 05:32:21;;;;;;;22.25;8.80;;;-3.90;99.90;;;;;;5044271;28;20227;-69
2023/12/04 05:34:49;;;;;;;16.05;8.27;;;-3.90;99.90;;;;;;5042777;28;20201;-67
2023/12/04 05:37:17;;;;;;;18.73;8.85;;;-3.90;99.90;;;;;;5036674;28;20232;-69
2023/12/04 05:39:45;;;;;;;18.70;9.05;;;-3.90;99.90;;;;;;5043280;28;20224;-67
2023/12/04 05:42:13;;;;;;;19.15;9.32;;;-3.90;99.90;;;;;;5044504;28;20236;-69
2023/12/04 05:44:41;;;;;;;19.80;7.50;;;-3.90;99.90;;;;;;5044025;28;20252;-67
2023/12/04 05:47:09;;;;;;;16.00;7.50;;;-3.90;99.90;;;;;;5043295;28;20321;-68
2023/12/04 05:49:38;;;;;;;15.20;7.35;;;-3.90;99.90;;;;;;5044128;28;20315;-67
2023/12/04 05:52:06;;;;;;;17.52;9.05;;;-4.00;99.90;;;;;;5050758;28;20308;-69
2023/12/04 05:54:34;;;;;;;21.65;8.90;;;-4.00;99.90;;;;;;5039025;28;20229;-69
2023/12/04 05:57:02;;;;;;;18.15;9.50;;;-4.10;99.90;;;;;;5043748;28;20278;-69
2023/12/04 05:59:30;;;;;;;16.83;8.40;;;-4.10;99.90;;;;;;5043750;28;20231;-68
2023/12/04 06:01:59;;;;;;;21.05;9.25;;;-4.10;99.90;;;;;;5043535;28;20308;-70
2023/12/04 06:04:27;;;;;;;20.27;9.43;;;-4.00;99.90;;;;;;5042284;28;20683;-68
2023/12/04 06:06:56;;;;;;;20.70;8.60;;;-4.00;99.90;;;;;;5038099;28;20258;-67
2023/12/04 06:09:25;;;;;;;18.23;7.70;;;-4.00;99.90;;;;;;5039577;28;20208;-68
2023/12/04 06:11:53;;;;;;;18.70;7.80;;;-4.00;99.90;;;;;;5032985;28;20631;-69
2023/12/04 06:14:21;;;;;;;18.52;8.80;;;-4.00;99.90;;;;;;5035755;28;20304;-69
2023/12/04 06:16:48;;;;;;;18.08;8.95;;;-3.90;99.90;;;;;;5040736;28;20233;-71
2023/12/04 06:19:16;;;;;;;18.83;8.38;;;-4.00;99.90;;;;;;5035371;28;20347;-70
2023/12/04 06:21:44;;;;;;;21.50;9.20;;;-4.00;99.90;;;;;;5035939;28;20223;-70
2023/12/04 06:24:15;;;;;;;19.98;9.20;;;-4.10;99.90;;;;;;5047484;28;20200;-66
2023/12/04 06:26:44;;;;;;;17.90;8.48;;;-4.00;99.90;;;;;;5041124;28;20302;-67
2023/12/04 06:29:12;;;;;;;19.50;8.82;;;-4.00;99.90;;;;;;5047008;28;20229;-67
2023/12/04 06:31:40;;;;;;;17.75;8.77;;;-3.90;99.90;;;;;;5043813;28;20308;-66
2023/12/04 06:34:09;;;;;;;19.33;8.27;;;-3.90;99.90;;;;;;5048210;28;20282;-69
2023/12/04 06:36:40;;;;;;;16.83;8.90;;;-3.80;99.90;;;;;;5047466;28;20562;-66
2023/12/04 06:39:11;;;;;;;17.90;8.13;;;-3.70;99.90;;;;;;5038567;28;20243;-67
2023/12/04 06:41:42;;;;;;;16.20;9.00;;;-3.60;99.90;;;;;;5044520;28;20719;-69
2023/12/04 06:44:11;;;;;;;16.10;7.65;;;-3.70;99.90;;;;;;5046559;28;20296;-68
2023/12/04 06:46:41;;;;;;;19.38;9.27;;;-3.60;99.90;;;;;;5046268;28;20225;-68
2023/12/04 06:49:12;;;;;;;22.33;8.65;;;-3.70;99.90;;;;;;5044525;28;20777;-67
2023/12/04 06:51:40;;;;;;;23.13;9.35;;;-3.80;99.90;;;;;;5047027;28;20230;-66
2023/12/04 06:54:08;;;;;;;17.58;9.27;;;-3.80;99.90;;;;;;5046702;28;20404;-67
2023/12/04 06:56:36;;;;;;;21.05;9.20;;;-3.70;99.90;;;;;;5047264;28;20237;-66
2023/12/04 06:59:06;;;;;;;17.42;7.82;;;-3.80;99.90;;;;;;5046946;28;20226;-65
2023/12/04 07:01:34;;;;;;;18.98;9.43;;;-3.70;99.90;;;;;;5046917;28;20255;-67
2023/12/04 07:04:09;;;;;;;18.95;8.65;;;-3.40;99.90;;;;;;5045326;28;20211;-67
2023/12/04 07:06:37;;;;;;;23.13;8.93;;;-3.40;99.90;;;;;;5048671;28;20288;-67
2023/12/04 07:09:07;;;;;;;21.95;10.23;;;-3.30;99.90;;;;;;5048767;28;20208;-65
2023/12/04 07:11:35;;;;;;;19.52;9.40;;;-3.40;99.90;;;;;;5047987;28;20754;-70
2023/12/04 07:14:03;;;;;;;18.05;8.32;;;-3.50;99.90;;;;;;5047466;28;20305;-69
2023/12/04 07:16:39;;;;;;;16.95;8.60;;;-3.50;99.90;;;;;;5048356;28;20220;-66
2023/12/04 07:19:07;;;;;;;18.35;7.68;;;-3.50;99.90;;;;;;5048988;28;20210;-67
2023/12/04 07:21:35;;;;;;;18.65;9.40;;;-3.30;99.90;;;;;;5051082;28;20338;-68
2023/12/04 07:24:03;;;;;;;18.20;8.68;;;-3.30;99.90;;;;;;5046621;28;20278;-68
2023/12/04 07:26:31;;;;;;;18.58;7.57;;;-3.30;99.90;;;;;;5046838;28;20225;-67
2023/12/04 07:28:59;;;;;;;20.63;9.25;;;-3.20;99.90;;;;;;5047504;28;20209;-70
2023/12/04 07:31:28;;;;;;;15.43;7.63;;;-3.00;99.90;;;;;;5046435;28;20233;-68
2023/12/04 07:34:00;;;;;;;19.70;7.95;;;-3.10;99.90;;;;;;5045570;28;20213;-67
2023/12/04 07:36:28;;;;;;;19.95;8.48;;;-3.20;99.90;;;;;;5046724;28;20266;-70
2023/12/04 07:38:56;;;;;;;20.52;9.48;;;-3.10;99.90;;;;;;5046863;28;20205;-69
2023/12/04 07:41:24;;;;;;;16.73;7.47;;;-3.20;99.90;;;;;;5045887;28;20233;-68
2023/12/04 07:43:54;;;;;;;17.95;8.27;;;-3.20;99.90;;;;;;5046167;28;20201;-67
2023/12/04 07:46:22;;;;;;;17.13;7.78;;;-3.00;99.90;;;;;;5046349;28;20244;-67
2023/12/04 07:48:50;;;;;;;17.67;8.15;;;-2.90;99.90;;;;;;5046789;28;20216;-68
2023/12/04 07:51:24;;;;;;;18.52;8.35;;;-2.90;99.90;;;;;;5046352;28;20691;-67
2023/12/04 07:53:52;;;;;;;18.77;8.95;;;-2.90;99.90;;;;;;5047059;28;20291;-70
2023/12/04 07:56:20;;;;;;;17.17;8.45;;;-2.70;99.90;;;;;;5046800;28;20709;-69
2023/12/04 07:58:48;;;;;;;18.65;7.25;;;-2.60;99.90;;;;;;5048454;28;20223;-70
2023/12/04 08:01:16;;;;;;;19.35;8.90;;;-2.40;99.90;;;;;;5049687;28;20644;-68
2023/12/04 08:03:44;;;;;;;16.60;7.88;;;-2.40;99.90;;;;;;5047209;28;20217;-69
2023/12/04 08:06:13;;;;;;;20.05;9.18;;;-2.40;99.90;;;;;;5046709;28;20213;-67
2023/12/04 08:08:42;;;;;;;19.48;8.45;;;-2.40;99.90;;;;;;5046332;28;20260;-66
2023/12/04 08:11:11;;;;;;;16.45;7.95;;;-2.30;99.90;;;;;;5045602;28;20229;-70
2023/12/04 08:13:39;;;;;;;20.35;9.15;;;-2.20;99.90;;;;;;5046130;28;20596;-66
2023/12/04 08:16:15;;;;;;;17.85;8.40;;;-2.10;99.90;;;;;;5045667;28;20844;-66
2023/12/04 08:18:43;;;;;;;16.70;8.90;;;-2.00;99.90;;;;;;5045694;28;20259;-66
2023/12/04 08:21:11;;;;;;;18.42;8.30;;;-1.90;99.90;;;;;;5045686;28;20221;-67
2023/12/04 08:23:39;;;;;;;17.13;8.90;;;-1.70;99.90;;;;;;5046174;28;20205;-67
2023/12/04 08:26:09;;;;;;;19.42;9.20;;;-1.70;99.90;;;;;;5045670;28;20201;-66
2023/12/04 08:28:41;;;;;;;21.02;10.27;;;-1.70;99.90;;;;;;5045938;28;20324;-66
2023/12/04 08:31:09;;;;;;;21.23;10.65;;;-1.70;99.90;;;;;;5045697;28;20323;-67
2023/12/04 08:33:38;;;;;;;18.13;8.82;;;-1.70;99.90;;;;;;5045709;28;20209;-67
2023/12/04 08:36:07;;;;;;;20.05;9.40;;;-1.80;99.90;;;;;;5045375;28;20213;-65
2023/12/04 08:38:35;;;;;;;17.75;8.80;;;-1.70;99.90;;;;;;5046471;28;20717;-68
2023/12/04 08:41:04;;;;;;;18.50;9.50;;;-1.50;99.90;;;;;;5045876;28;20299;-69
2023/12/04 08:43:33;;;;;;;19.38;9.40;;;-1.40;99.90;;;;;;5045457;28;20582;-66
2023/12/04 08:46:01;;;;;;;23.25;10.45;;;-1.30;99.90;;;;;;5044554;28;20232;-69
2023/12/04 08:48:29;;;;;;;24.75;9.90;;;-1.30;99.90;;;;;;5045636;28;20233;-68
2023/12/04 08:50:58;;;;;;;23.30;9.95;;;-1.10;99.90;;;;;;5048012;28;20262;-68
2023/12/04 08:53:26;;;;;;;16.13;8.27;;;-1.00;99.90;;;;;;5045089;28;20284;-66
2023/12/04 08:55:57;;;;;;;18.45;9.43;;;-0.90;99.90;;;;;;5044543;28;20225;-66
2023/12/04 08:58:25;;;;;;;16.60;8.68;;;-0.90;99.90;;;;;;5044863;28;20717;-68
2023/12/04 09:00:55;;;;;;;18.67;9.15;;;-0.80;99.90;;;;;;5044792;28;20628;-70
2023/12/04 09:03:23;;;;;;;17.65;7.93;;;-0.80;99.90;;;;;;5044649;28;20216;-66
2023/12/04 09:05:59;;;;;;;17.90;8.27;;;-0.90;99.90;;;;;;5044518;28;20223;-67
2023/12/04 09:08:27;;;;;;;19.15;8.38;;;-0.90;99.90;;;;;;5043634;28;20274;-69
2023/12/04 09:11:06;;;;;;;18.52;9.43;;;-0.70;99.90;;;;;;5045495;28;20229;-66
2023/12/04 09:13:50;;;;;;;19.70;8.80;;;-0.70;99.90;;;;;;5045714;28;20208;-68
2023/12/04 09:16:19;;;;;;;18.17;9.25;;;-0.60;99.90;;;;;;5045426;28;20205;-67
2023/12/04 09:18:47;;;;;;;17.90;8.63;;;-0.70;99.90;;;;;;5045929;28;20258;-68
2023/12/04 09:21:16;;;;;;;19.02;8.73;;;-0.80;99.90;;;;;;5045401;28;20315;-68
2023/12/04 09:23:49;;;;;;;20.42;8.27;;;-0.90;99.90;;;;;;5045567;28;20212;-66
2023/12/04 09:26:17;;;;;;;18.20;8.90;;;-0.90;99.90;;;;;;5045256;28;20212;-67
2023/12/04 09:28:46;;;;;;;18.55;10.70;;;-0.90;99.90;;;;;;5045618;28;20233;-67
2023/12/04 09:31:14;;;;;;;15.52;8.50;;;-1.00;99.90;;;;;;5045293;28;20260;-68
2023/12/04 09:33:43;;;;;;;19.05;9.07;;;-1.00;99.90;;;;;;5045256;28;20215;-71
2023/12/04 09:36:11;;;;;;;17.90;9.30;;;-1.00;99.90;;;;;;5044263;28;20241;-68
2023/12/04 09:38:39;;;;;;;19.52;8.90;;;-1.00;99.90;;;;;;5044445;28;20208;-66
2023/12/04 09:41:12;;;;;;;19.58;10.60;;;-0.90;99.90;;;;;;5044147;28;20279;-66
2023/12/04 09:43:41;;;;;;;20.00;9.88;;;-0.90;99.90;;;;;;5044329;28;20744;-67
2023/12/04 09:46:10;;;;;;;20.67;8.90;;;-0.70;99.90;;;;;;5043524;28;20216;-67
2023/12/04 09:48:41;;;;;;;19.88;9.10;;;-0.70;99.90;;;;;;5043795;28;20264;-67
2023/12/04 09:51:12;;;;;;;21.50;9.10;;;-0.50;99.90;;;;;;5043797;28;20286;-68
2023/12/04 09:53:41;;;;;;;20.65;8.95;;;-0.50;99.90;;;;;;5043890;28;20247;-68
2023/12/04 09:56:11;;;;;;;16.00;8.10;;;-0.40;99.90;;;;;;5043252;28;20263;-69
2023/12/04 09:58:41;;;;;;;18.63;8.15;;;-0.40;99.90;;;;;;5044342;28;20712;-68
2023/12/04 10:01:10;;;;;;;19.58;8.40;;;-0.50;99.90;;;;;;5048497;28;20793;-66
2023/12/04 10:03:41;;;;;;;18.90;8.98;;;-0.60;99.90;;;;;;5043167;28;20335;-66
2023/12/04 10:06:12;;;;;;;16.55;8.38;;;-0.70;99.90;;;;;;5045182;28;20690;-68
2023/12/04 10:08:40;;;;;;;15.77;7.70;;;-0.70;99.90;;;;;;5044700;28;20221;-67
2023/12/04 10:11:08;;;;;;;16.70;8.10;;;-0.60;99.90;;;;;;5052984;28;20221;-66
2023/12/04 10:13:36;;;;;;;16.27;8.45;;;-0.60;99.90;;;;;;5045396;28;20307;-67
2023/12/04 10:16:34;;;;;;;16.17;7.35;;;-0.60;99.90;;;;;;5052932;28;20205;-68
2023/12/04 10:19:22;;;;;;;18.10;8.40;;;-0.40;99.90;;;;;;5044282;28;20204;-66
2023/12/04 10:21:53;;;;;;;16.88;7.75;;;-0.30;99.90;;;;;;5043854;28;20251;-68
2023/12/04 10:24:35;;;;;;;16.45;7.78;;;-0.10;99.90;;;;;;5043289;28;20212;-66
2023/12/04 10:27:05;;;;;;;20.75;7.93;;;0.00;99.90;;;;;;5044282;28;20221;-70
2023/12/04 10:29:43;;;;;;;18.63;9.20;;;0.10;99.90;;;;;;5043662;28;20290;-67
2023/12/04 10:32:11;;;;;;;17.75;8.32;;;0.10;99.90;;;;;;5044255;28;20228;-68
2023/12/04 10:34:39;;;;;;;18.27;9.05;;;0.20;99.90;;;;;;5043318;28;20223;-69
2023/12/04 10:37:10;;;;;;;17.98;8.57;;;0.20;99.90;;;;;;5044132;28;20293;-67
2023/12/04 10:39:47;;;;;;;17.05;7.13;;;0.30;99.90;;;;;;5043940;28;20687;-67
2023/12/04 10:42:25;;;;;;;15.32;7.47;;;0.40;99.90;;;;;;5043667;28;20724;-66
2023/12/04 10:44:55;;;;;;;16.27;7.68;;;0.50;99.90;;;;;;5042206;28;20210;-68
2023/12/04 10:47:24;;;;;;;19.40;8.38;;;0.60;99.90;;;;;;5045056;28;20649;-67
2023/12/04 10:49:52;;;;;;;17.50;8.63;;;0.70;99.90;;;;;;5044552;28;20269;-66
2023/12/04 10:52:22;;;;;;;16.02;8.45;;;0.80;99.90;;;;;;5045222;28;20231;-71
2023/12/04 10:54:50;;;;;;;19.15;8.32;;;0.90;99.90;;;;;;5043565;28;20207;-67
2023/12/04 10:57:26;;;;;;;17.45;8.15;;;0.90;99.90;;;;;;5044296;28;20221;-68
2023/12/04 10:59:58;;;;;;;15.98;8.32;;;1.00;99.90;;;;;;5044512;28;20219;-67
2023/12/04 11:02:27;;;;;;;16.17;8.68;;;1.00;99.90;;;;;;5045185;28;20255;-68
2023/12/04 11:04:59;;;;;;;16.63;8.55;;;1.00;99.90;;;;;;5044071;28;20580;-68
2023/12/04 11:07:31;;;;;;;15.93;8.48;;;1.00;99.90;;;;;;5045135;28;20305;-66
2023/12/04 11:10:23;;;;;;;18.58;7.90;;;1.00;99.90;;;;;;5047915;28;20342;-68
2023/12/04 11:12:56;;;;;;;16.65;7.22;;;1.00;99.90;;;;;;5048450;28;20239;-67
2023/12/04 11:15:26;;;;;;;16.02;8.13;;;1.20;99.90;;;;;;5047680;28;20211;-67
2023/12/04 11:17:59;;;;;;;15.60;7.07;;;1.30;99.90;;;;;;5048053;28;20209;-69
2023/12/04 11:20:31;;;;;;;14.40;6.63;;;1.40;99.90;;;;;;5047746;28;20207;-66
2023/12/04 11:23:01;;;;;;;16.02;7.18;;;1.40;99.90;;;;;;5047908;28;20245;-68
2023/12/04 11:25:34;;;;;;;16.50;6.95;;;1.40;99.90;;;;;;5045953;28;20663;-67
2023/12/04 11:28:03;;;;;;;18.92;7.25;;;1.30;99.90;;;;;;5047327;28;20212;-68
2023/12/04 11:30:34;;;;;;;14.25;7.05;;;1.30;99.90;;;;;;5046452;28;20302;-66
2023/12/04 11:33:02;;;;;;;18.63;7.35;;;1.30;99.90;;;;;;5046548;28;20298;-70
2023/12/04 11:35:30;;;;;;;14.35;6.90;;;1.30;99.90;;;;;;5045730;28;20238;-67
2023/12/04 11:38:00;;;;;;;14.40;7.00;;;1.30;99.90;;;;;;5046641;28;20302;-68
2023/12/04 11:40:28;;;;;;;15.27;7.35;;;1.30;99.90;;;;;;5046179;28;20209;-66
2023/12/04 11:42:56;;;;;;;14.25;7.30;;;1.30;99.90;;;;;;5046496;28;20235;-69
2023/12/04 11:45:25;;;;;;;14.80;7.55;;;1.30;99.90;;;;;;5045623;28;20221;-67
2023/12/04 11:47:57;;;;;;;14.55;7.38;;;1.20;99.90;;;;;;5046502;28;20291;-67
2023/12/04 11:50:25;;;;;;;15.52;7.32;;;1.30;99.90;;;;;;5046061;28;20640;-66
2023/12/04 11:52:55;;;;;;;15.55;7.43;;;1.40;99.90;;;;;;5046387;28;20282;-66
2023/12/04 11:55:26;;;;;;;16.33;7.13;;;1.40;99.90;;;;;;5046917;28;20213;-68
2023/12/04 11:57:57;;;;;;;14.23;7.05;;;1.50;99.90;;;;;;5047898;28;20232;-67
2023/12/04 12:00:25;;;;;;;16.30;8.05;;;1.60;99.90;;;;;;5047240;28;20305;-67
2023/12/04 12:03:06;;;;;;;14.10;7.75;;;1.60;99.90;;;;;;5047532;28;20228;-67
2023/12/04 12:05:50;;;;;;;15.90;7.05;;;1.60;99.90;;;;;;5046845;28;20268;-66
2023/12/04 12:08:23;;;;;;;15.10;7.65;;;1.60;99.90;;;;;;5047376;28;20239;-69
2023/12/04 12:10:54;;;;;;;16.75;8.10;;;1.50;99.90;;;;;;5047197;28;20230;-67
2023/12/04 12:13:25;;;;;;;15.25;8.50;;;1.40;99.90;;;;;;5047717;28;20198;-66
2023/12/04 12:15:53;;;;;;;15.25;7.82;;;1.30;99.90;;;;;;5046979;28;20209;-66
2023/12/04 12:18:24;;;;;;;19.70;10.38;;;1.20;99.90;;;;;;5047293;28;20202;-69
2023/12/04 12:20:56;;;;;;;18.93;9.33;;;1.20;99.90;;;;;;5046166;28;20218;-65
2023/12/04 12:23:24;;;;;;;21.10;10.80;;;1.20;99.90;;;;;;5046978;28;20438;-68
2023/12/04 12:25:53;;;;;;;17.63;8.25;;;1.20;99.90;;;;;;5046406;28;20624;-66
2023/12/04 12:28:24;;;;;;;17.60;9.15;;;1.20;99.90;;;;;;5047153;28;20215;-67
2023/12/04 12:30:52;;;;;;;18.17;8.65;;;1.30;99.90;;;;;;5046339;28;20408;-70
2023/12/04 12:33:23;;;;;;;18.60;8.60;;;1.40;99.90;;;;;;5047003;28;20212;-67
2023/12/04 12:35:51;;;;;;;17.45;8.32;;;1.50;99.90;;;;;;5042382;28;20204;-67
2023/12/04 12:38:29;;;;;;;20.70;9.73;;;1.50;99.90;;;;;;5046078;28;20210;-69
2023/12/04 12:40:59;;;;;;;18.15;9.00;;;1.50;99.90;;;;;;5045877;28;20825;-68
2023/12/04 12:43:29;;;;;;;19.90;8.50;;;1.40;99.90;;;;;;5046056;28;20213;-67
2023/12/04 12:45:56;;;;;;;18.10;8.10;;;1.30;99.90;;;;;;5039913;28;20216;-68